Time,TemperatureF,DewpointF,PressureIn,WindDirection,WindDirectionDegrees,WindSpeedMPH,WindSpeedGustMPH,Humidity,HourlyPrecipIn,Conditions,Clouds,dailyrainin,SoftwareType,DateUTC
2013-10-02 00:14:00,53.0,50.0,30.17,WSW,251,0.0,0.0,91,0.00,,,0.00,,2013-10-02 04:14:00,
2013-10-02 00:24:00,53.0,51.0,30.16,WSW,250,0.0,0.0,92,0.00,,,0.00,,2013-10-02 04:24:00,
2013-10-02 00:54:00,53.0,51.0,30.16,WSW,250,0.0,0.0,92,0.00,,,0.00,,2013-10-02 04:54:00,
2013-10-02 01:23:00,53.0,51.0,30.17,WSW,251,1.0,4.0,93,0.00,,,0.00,,2013-10-02 05:23:00,
2013-10-02 01:53:00,52.0,50.0,30.16,WSW,250,0.0,0.0,93,0.00,,,0.00,,2013-10-02 05:53:00,
2013-10-02 02:22:00,52.0,50.0,30.17,WSW,251,0.0,0.0,93,0.00,,,0.00,,2013-10-02 06:22:00,
2013-10-02 02:52:00,52.0,50.0,30.17,WSW,251,0.0,0.0,93,0.00,,,0.00,,2013-10-02 06:52:00,
2013-10-02 03:22:00,51.0,49.0,30.16,WSW,251,0.0,0.0,94,0.00,,,0.00,,2013-10-02 07:22:00,
2013-10-02 03:52:00,51.0,49.0,30.16,WSW,250,0.0,0.0,94,0.00,,,0.00,,2013-10-02 07:52:00,
2013-10-02 04:22:00,51.0,49.0,30.16,WSW,251,0.0,0.0,94,0.00,,,0.00,,2013-10-02 08:22:00,
2013-10-02 04:52:00,52.0,50.0,30.15,WSW,251,0.0,0.0,94,0.00,,,0.00,,2013-10-02 08:52:00,
2013-10-02 05:21:00,52.0,51.0,30.16,WSW,250,0.0,0.0,95,0.00,,,0.00,,2013-10-02 09:21:00,
2013-10-02 05:54:00,52.0,51.0,30.16,WSW,251,0.0,0.0,95,0.00,,,0.00,,2013-10-02 09:54:00,
2013-10-02 06:23:00,52.0,51.0,30.16,WSW,251,0.0,0.0,95,0.00,,,0.00,,2013-10-02 10:23:00,
2013-10-02 06:53:00,52.0,51.0,30.16,WSW,251,0.0,0.0,95,0.00,,,0.00,,2013-10-02 10:53:00,
2013-10-02 07:22:00,52.0,51.0,30.17,SW,233,0.0,0.0,95,0.00,,,0.00,,2013-10-02 11:22:00,
2013-10-02 07:52:00,52.0,51.0,30.18,SW,233,0.0,0.0,95,0.00,,,0.00,,2013-10-02 11:52:00,
2013-10-02 08:22:00,52.0,51.0,30.19,SW,233,0.0,0.0,95,0.01,,,0.01,,2013-10-02 12:22:00,
2013-10-02 08:52:00,55.0,54.0,30.20,SW,234,0.0,0.0,95,0.01,,,0.01,,2013-10-02 12:52:00,
2013-10-02 09:22:00,59.0,58.0,30.21,SW,234,0.0,0.0,95,0.00,,,0.01,,2013-10-02 13:22:00,
2013-10-02 09:52:00,63.0,58.0,30.22,WNW,292,0.0,5.0,83,0.00,,,0.01,,2013-10-02 13:52:00,
2013-10-02 10:21:00,66.0,59.0,30.22,West,267,0.0,6.0,77,0.00,,,0.01,,2013-10-02 14:21:00,
2013-10-02 10:52:00,68.0,58.0,30.22,North,351,4.0,8.0,70,0.00,,,0.01,,2013-10-02 14:52:00,
2013-10-02 11:22:00,67.0,57.0,30.22,NNE,24,0.0,8.0,71,0.00,,,0.01,,2013-10-02 15:22:00,
2013-10-02 11:54:00,69.0,57.0,30.22,NNE,17,4.0,12.0,66,0.00,,,0.01,,2013-10-02 15:54:00,
2013-10-02 12:23:00,71.0,56.0,30.22,NNE,21,4.0,10.0,59,0.00,,,0.01,,2013-10-02 16:23:00,
2013-10-02 12:53:00,72.0,57.0,30.21,North,9,1.0,9.0,59,0.00,,,0.01,,2013-10-02 16:53:00,
2013-10-02 13:23:00,72.0,58.0,30.20,NNW,332,2.0,7.0,62,0.00,,,0.01,,2013-10-02 17:23:00,
2013-10-02 13:52:00,73.0,57.0,30.19,NNE,25,3.0,7.0,58,0.00,,,0.01,,2013-10-02 17:52:00,
2013-10-02 14:22:00,74.0,57.0,30.18,NW,326,1.0,8.0,55,0.00,,,0.01,,2013-10-02 18:22:00,
2013-10-02 14:52:00,73.0,57.0,30.17,NNW,336,2.0,8.0,57,0.00,,,0.01,,2013-10-02 18:52:00,
2013-10-02 15:22:00,75.0,58.0,30.17,WSW,242,3.0,6.0,55,0.00,,,0.01,,2013-10-02 19:22:00,
2013-10-02 15:52:00,74.0,57.0,30.16,West,281,0.0,7.0,55,0.00,,,0.01,,2013-10-02 19:52:00,
2013-10-02 16:22:00,74.0,58.0,30.16,West,281,0.0,7.0,57,0.00,,,0.01,,2013-10-02 20:22:00,
2013-10-02 16:52:00,76.0,58.0,30.15,NNE,33,0.0,4.0,54,0.00,,,0.01,,2013-10-02 20:52:00,
2013-10-02 17:22:00,74.0,58.0,30.15,West,279,3.0,5.0,57,0.00,,,0.01,,2013-10-02 21:22:00,
2013-10-02 17:55:00,74.0,58.0,30.16,North,355,0.0,3.0,57,0.00,,,0.01,,2013-10-02 21:55:00,
2013-10-02 18:24:00,75.0,59.0,30.16,NW,325,0.0,1.0,57,0.00,,,0.01,,2013-10-02 22:24:00,
2013-10-02 18:54:00,70.0,59.0,30.16,NW,319,0.0,0.0,68,0.00,,,0.01,,2013-10-02 22:54:00,
2013-10-02 19:22:00,65.0,56.0,30.16,NW,318,0.0,0.0,74,0.00,,,0.01,,2013-10-02 23:22:00,
2013-10-02 19:52:00,63.0,56.0,30.17,WNW,298,0.0,0.0,77,0.00,,,0.01,,2013-10-02 23:52:00,
2013-10-02 20:22:00,61.0,55.0,30.17,WSW,243,1.0,4.0,80,0.00,,,0.01,,2013-10-03 00:22:00,
2013-10-02 20:52:00,60.0,54.0,30.18,WSW,242,0.0,3.0,82,0.00,,,0.01,,2013-10-03 00:52:00,
2013-10-02 21:23:00,59.0,54.0,30.18,WSW,243,0.0,0.0,83,0.00,,,0.01,,2013-10-03 01:23:00,
2013-10-02 21:52:00,59.0,54.0,30.18,WSW,243,0.0,0.0,84,0.00,,,0.01,,2013-10-03 01:52:00,
2013-10-02 22:22:00,58.0,54.0,30.18,WSW,242,0.0,0.0,85,0.00,,,0.01,,2013-10-03 02:22:00,
2013-10-02 23:22:00,57.0,53.0,30.19,WSW,243,0.0,0.0,87,0.00,,,0.01,,2013-10-03 03:22:00,
2013-10-02 23:54:00,56.0,52.0,30.19,WSW,243,0.0,0.0,87,0.00,,,0.01,,2013-10-03 03:54:00,